createdAt,value
2022-08-21T00:05:05.191Z,17.2
2022-08-21T00:10:58.778Z,17
2022-08-21T00:16:50.078Z,17.4
2022-08-21T00:22:47.746Z,17.4
2022-08-21T00:28:43.348Z,17
2022-08-21T00:34:35.044Z,17.4
2022-08-21T00:40:26.903Z,16.9
2022-08-21T00:46:17.631Z,17.1
2022-08-21T00:52:16.584Z,17.1
2022-08-21T00:58:08.681Z,17.1
2022-08-21T01:04:04.516Z,17
2022-08-21T01:09:56.055Z,17.1
2022-08-21T01:15:49.560Z,17.2
2022-08-21T01:21:41.049Z,16.9
2022-08-21T01:27:37.013Z,16.8
2022-08-21T01:33:31.071Z,16.9
2022-08-21T01:39:24.356Z,16.6
2022-08-21T01:45:15.409Z,16.5
2022-08-21T01:51:07.780Z,16.6
2022-08-21T01:56:58.383Z,16.5
2022-08-21T02:02:51.901Z,16.2
2022-08-21T02:08:44.181Z,16.4
2022-08-21T02:14:37.823Z,16.3
2022-08-21T02:20:28.542Z,16.1
2022-08-21T02:26:21.184Z,16.2
2022-08-21T02:32:13.037Z,15.6
2022-08-21T02:38:05.247Z,16
2022-08-21T02:44:01.932Z,16.2
2022-08-21T02:49:53.701Z,15.8
2022-08-21T02:55:45.558Z,15.8
2022-08-21T03:01:37.069Z,15.7
2022-08-21T03:07:28.716Z,15.7
2022-08-21T03:13:19.481Z,15.7
2022-08-21T03:19:10.756Z,15.6
2022-08-21T03:25:04.449Z,15.5
2022-08-21T03:31:01.813Z,15.7
2022-08-21T03:36:53.825Z,15.6
2022-08-21T03:42:44.911Z,15.5
2022-08-21T03:48:35.622Z,15.4
2022-08-21T03:54:28.744Z,15.4
2022-08-21T04:00:19.910Z,14.9
2022-08-21T04:06:12.297Z,15.4
2022-08-21T04:12:05.755Z,15.3
2022-08-21T04:17:58.524Z,15.1
2022-08-21T04:23:49.179Z,15.4
2022-08-21T04:29:41.744Z,15.3
2022-08-21T04:35:33.467Z,15.3
2022-08-21T05:42:14.300Z,18.1
2022-08-21T06:01:48.167Z,22
2022-08-21T06:07:58.607Z,18.8
2022-08-21T06:13:52.511Z,18.4
2022-08-21T06:19:54.701Z,18.4
2022-08-21T06:25:54.967Z,18.5
2022-08-21T06:31:58.350Z,18.5
2022-08-21T06:38:03.107Z,18.6
2022-08-21T07:09:20.497Z,18.7
2022-08-21T07:21:49.664Z,18.8
2022-08-21T07:27:41.442Z,19
2022-08-21T07:40:14.205Z,19
2022-08-21T07:46:06.989Z,19.1
2022-08-21T07:58:19.980Z,19.3
2022-08-21T08:11:16.151Z,19.9
2022-08-21T08:29:28.839Z,20.2
2022-08-21T08:35:24.382Z,20.5
2022-08-21T08:48:15.895Z,20.5
2022-08-21T08:54:08.133Z,20.9
2022-08-21T09:00:02.693Z,21.1
2022-08-21T09:05:56.927Z,21.6
2022-08-21T09:11:48.815Z,21.4
2022-08-21T09:17:42.251Z,21.2
2022-08-21T09:23:34.405Z,21.4
2022-08-21T09:36:23.667Z,22
2022-08-21T09:42:15.638Z,22.3
2022-08-21T09:48:07.758Z,22.1
2022-08-21T09:54:11.179Z,22.4
2022-08-21T10:00:04.249Z,22.6
2022-08-21T10:05:58.226Z,22.5
2022-08-21T10:11:52.884Z,22.5
2022-08-21T10:17:45.497Z,22.8
2022-08-21T10:30:01.404Z,23.3
2022-08-21T10:35:55.886Z,23.4
2022-08-21T10:48:21.404Z,23.2
2022-08-21T10:54:17.322Z,23.5
2022-08-21T11:00:17.239Z,24
2022-08-21T11:06:17.620Z,24.2
2022-08-21T11:12:28.818Z,24
2022-08-21T11:18:37.081Z,24.1
2022-08-21T11:24:51.014Z,24.4
2022-08-21T11:30:57.032Z,24.4
2022-08-21T11:36:49.124Z,24.4
2022-08-21T11:42:55.490Z,24.6
2022-08-21T11:49:14.362Z,24.6
2022-08-21T11:55:15.245Z,24.6
2022-08-21T12:01:18.163Z,25.3
2022-08-21T12:07:22.860Z,25
2022-08-21T12:13:35.729Z,25
2022-08-21T12:19:41.985Z,25.3
2022-08-21T12:25:41.945Z,25.7
2022-08-21T12:31:35.942Z,25.3
2022-08-21T12:37:31.438Z,25.4
2022-08-21T12:43:47.662Z,25.4
2022-08-21T12:49:47.377Z,25.8
2022-08-21T12:55:40.349Z,26.3
2022-08-21T13:01:42.812Z,26.3
2022-08-21T13:07:52.424Z,26.1
2022-08-21T13:14:14.203Z,26.4
2022-08-21T13:20:10.172Z,26
2022-08-21T13:26:02.266Z,26
2022-08-21T13:32:01.127Z,26.3
2022-08-21T13:38:19.701Z,26.1
2022-08-21T13:50:48.874Z,26.1
2022-08-21T13:56:44.651Z,26.2
2022-08-21T14:09:32.480Z,26.1
2022-08-21T14:15:29.762Z,26.2
2022-08-21T14:21:25.836Z,26.2
2022-08-21T14:27:17.905Z,26.1
2022-08-21T14:33:14.452Z,26.2
2022-08-21T14:39:27.727Z,26.3
2022-08-21T14:45:35.824Z,26.1
2022-08-21T14:51:29.798Z,25.9
2022-08-21T14:57:40.585Z,25.9
2022-08-21T15:03:33.261Z,26
2022-08-21T15:09:25.328Z,25.9
2022-08-21T15:15:18.990Z,25.9
2022-08-21T15:21:12.125Z,25.9
2022-08-21T15:27:10.141Z,25.8
2022-08-21T15:33:10.545Z,25.8
2022-08-21T15:39:04.105Z,25.7
2022-08-21T15:44:55.696Z,25.7
2022-08-21T15:50:47.044Z,25.6
2022-08-21T15:56:39.146Z,25.6
2022-08-21T16:02:30.335Z,25.5
2022-08-21T16:08:21.590Z,25.5
2022-08-21T16:14:13.854Z,25.5
2022-08-21T16:20:05.387Z,25.3
2022-08-21T16:25:57.216Z,25.3
2022-08-21T16:31:59.101Z,25
2022-08-21T16:37:53.264Z,25
2022-08-21T16:43:45.528Z,24.9
2022-08-21T16:49:38.279Z,24.9
2022-08-21T16:55:32.817Z,24.8
2022-08-21T17:01:25.695Z,24.7
2022-08-21T17:07:17.738Z,24.6
2022-08-21T17:13:11.157Z,24.6
2022-08-21T17:19:01.683Z,24.5
2022-08-21T17:24:54.925Z,24.5
2022-08-21T17:30:46.312Z,24.4
2022-08-21T17:36:41.252Z,24.4
2022-08-21T17:42:33.501Z,24.2
2022-08-21T17:48:26.642Z,24.1
2022-08-21T17:54:19.660Z,24.1
2022-08-21T18:00:11.874Z,24
2022-08-21T18:06:02.820Z,24
2022-08-21T18:12:03.913Z,23.9
2022-08-21T18:17:55.230Z,23.8
2022-08-21T18:23:47.343Z,23.7
2022-08-21T18:29:43.720Z,23.6
2022-08-21T18:35:41.632Z,23.5
2022-08-21T18:41:34.415Z,23.4
2022-08-21T18:47:24.627Z,23.4
2022-08-21T18:53:18.040Z,23.1
2022-08-21T18:59:20.577Z,23.1
2022-08-21T19:05:15.159Z,23
2022-08-21T22:48:28.484Z,20.4
2022-08-21T22:54:22.159Z,20.4
2022-08-21T23:00:15.958Z,20.4
2022-08-21T23:06:11.519Z,20
2022-08-21T23:12:14.055Z,19.9
2022-08-21T23:18:26.235Z,20
2022-08-21T23:24:19.334Z,19.9
2022-08-21T23:30:11.566Z,19.8
2022-08-21T23:36:06.127Z,19.7
2022-08-21T23:41:58.752Z,19.6
2022-08-21T23:47:53.789Z,19.6
2022-08-21T23:53:50.298Z,19.5
2022-08-21T23:59:41.030Z,19.2
